sensor_id;sensor_type;location;lat;lon;timestamp;temperature;humidity
61841;DHT22;47773;53.174;6.614;2023-05-08T00:01:09;12.40;99.90
61841;DHT22;47773;53.174;6.614;2023-05-08T00:03:35;12.30;99.90
61841;DHT22;47773;53.174;6.614;2023-05-08T00:06:05;12.30;99.90
61841;DHT22;47773;53.174;6.614;2023-05-08T00:08:30;12.40;99.90
61841;DHT22;47773;53.174;6.614;2023-05-08T00:10:56;12.30;99.90
61841;DHT22;47773;53.174;6.614;2023-05-08T00:13:22;12.30;99.90
61841;DHT22;47773;53.174;6.614;2023-05-08T00:15:48;12.30;99.90
61841;DHT22;47773;53.174;6.614;2023-05-08T00:18:14;12.30;99.90
61841;DHT22;47773;53.174;6.614;2023-05-08T00:20:40;12.20;99.90
61841;DHT22;47773;53.174;6.614;2023-05-08T00:23:06;12.20;99.90
61841;DHT22;47773;53.174;6.614;2023-05-08T00:25:32;12.20;99.90
61841;DHT22;47773;53.174;6.614;2023-05-08T00:28:00;12.20;99.90
61841;DHT22;47773;53.174;6.614;2023-05-08T00:30:26;12.20;99.90
61841;DHT22;47773;53.174;6.614;2023-05-08T00:32:52;12.20;99.90
61841;DHT22;47773;53.174;6.614;2023-05-08T00:35:18;12.20;99.90
61841;DHT22;47773;53.174;6.614;2023-05-08T00:37:44;12.20;99.90
61841;DHT22;47773;53.174;6.614;2023-05-08T00:40:10;12.20;99.90
61841;DHT22;47773;53.174;6.614;2023-05-08T00:42:36;12.20;99.90
61841;DHT22;47773;53.174;6.614;2023-05-08T00:45:03;12.20;99.90
61841;DHT22;47773;53.174;6.614;2023-05-08T00:47:29;12.10;99.90
61841;DHT22;47773;53.174;6.614;2023-05-08T00:49:57;12.10;99.90
61841;DHT22;47773;53.174;6.614;2023-05-08T00:52:24;12.20;99.90
61841;DHT22;47773;53.174;6.614;2023-05-08T00:54:50;12.10;99.90
61841;DHT22;47773;53.174;6.614;2023-05-08T00:57:17;12.10;99.90
61841;DHT22;47773;53.174;6.614;2023-05-08T00:59:43;12.10;99.90
61841;DHT22;47773;53.174;6.614;2023-05-08T01:02:10;12.10;99.90
61841;DHT22;47773;53.174;6.614;2023-05-08T01:04:36;12.10;99.90
61841;DHT22;47773;53.174;6.614;2023-05-08T01:07:02;12.10;99.90
61841;DHT22;47773;53.174;6.614;2023-05-08T01:09:28;12.10;99.90
61841;DHT22;47773;53.174;6.614;2023-05-08T01:26:06;11.90;99.90
61841;DHT22;47773;53.174;6.614;2023-05-08T01:31:46;11.80;99.90
61841;DHT22;47773;53.174;6.614;2023-05-08T01:34:30;11.80;99.90
61841;DHT22;47773;53.174;6.614;2023-05-08T01:37:04;11.80;99.90
61841;DHT22;47773;53.174;6.614;2023-05-08T01:39:38;11.80;99.90
61841;DHT22;47773;53.174;6.614;2023-05-08T01:44:48;11.70;99.90
61841;DHT22;47773;53.174;6.614;2023-05-08T01:47:18;11.70;99.90
61841;DHT22;47773;53.174;6.614;2023-05-08T01:49:48;11.70;99.90
61841;DHT22;47773;53.174;6.614;2023-05-08T01:52:21;11.60;99.90
61841;DHT22;47773;53.174;6.614;2023-05-08T01:55:03;11.60;99.90
61841;DHT22;47773;53.174;6.614;2023-05-08T01:57:32;11.60;99.90
61841;DHT22;47773;53.174;6.614;2023-05-08T01:59:59;11.50;99.90
61841;DHT22;47773;53.174;6.614;2023-05-08T02:02:27;11.50;99.90
61841;DHT22;47773;53.174;6.614;2023-05-08T02:04:53;11.50;99.90
61841;DHT22;47773;53.174;6.614;2023-05-08T02:07:21;11.50;99.90
61841;DHT22;47773;53.174;6.614;2023-05-08T02:09:48;11.40;99.90
61841;DHT22;47773;53.174;6.614;2023-05-08T02:12:16;11.40;99.90
61841;DHT22;47773;53.174;6.614;2023-05-08T02:14:44;11.40;99.90
61841;DHT22;47773;53.174;6.614;2023-05-08T02:17:11;11.30;99.90
61841;DHT22;47773;53.174;6.614;2023-05-08T02:19:38;11.30;99.90
61841;DHT22;47773;53.174;6.614;2023-05-08T02:22:07;11.40;99.90
61841;DHT22;47773;53.174;6.614;2023-05-08T02:24:34;11.30;99.90
61841;DHT22;47773;53.174;6.614;2023-05-08T02:27:01;11.30;99.90
61841;DHT22;47773;53.174;6.614;2023-05-08T02:29:27;11.30;99.90
61841;DHT22;47773;53.174;6.614;2023-05-08T02:31:55;11.30;99.90
61841;DHT22;47773;53.174;6.614;2023-05-08T02:34:22;11.30;99.90
61841;DHT22;47773;53.174;6.614;2023-05-08T02:36:52;11.30;99.90
61841;DHT22;47773;53.174;6.614;2023-05-08T02:39:19;11.30;99.90
61841;DHT22;47773;53.174;6.614;2023-05-08T02:41:46;11.30;99.90
61841;DHT22;47773;53.174;6.614;2023-05-08T02:44:12;11.20;99.90
61841;DHT22;47773;53.174;6.614;2023-05-08T02:47:27;11.20;99.90
61841;DHT22;47773;53.174;6.614;2023-05-08T02:49:37;11.20;99.90
61841;DHT22;47773;53.174;6.614;2023-05-08T02:52:09;11.20;99.90
61841;DHT22;47773;53.174;6.614;2023-05-08T02:54:43;11.10;99.90
61841;DHT22;47773;53.174;6.614;2023-05-08T02:57:38;11.20;99.90
61841;DHT22;47773;53.174;6.614;2023-05-08T03:02:41;11.10;99.90
61841;DHT22;47773;53.174;6.614;2023-05-08T03:05:19;11.10;99.90
61841;DHT22;47773;53.174;6.614;2023-05-08T03:07:51;11.10;99.90
61841;DHT22;47773;53.174;6.614;2023-05-08T03:10:21;11.10;99.90
61841;DHT22;47773;53.174;6.614;2023-05-08T03:12:51;11.00;99.90
61841;DHT22;47773;53.174;6.614;2023-05-08T03:15:24;11.00;99.90
61841;DHT22;47773;53.174;6.614;2023-05-08T03:17:59;11.00;99.90
61841;DHT22;47773;53.174;6.614;2023-05-08T03:20:30;10.90;99.90
61841;DHT22;47773;53.174;6.614;2023-05-08T03:22:57;10.90;99.90
61841;DHT22;47773;53.174;6.614;2023-05-08T03:25:23;10.90;99.90
61841;DHT22;47773;53.174;6.614;2023-05-08T03:27:50;10.90;99.90
61841;DHT22;47773;53.174;6.614;2023-05-08T03:30:17;10.90;99.90
61841;DHT22;47773;53.174;6.614;2023-05-08T03:32:45;10.90;99.90
61841;DHT22;47773;53.174;6.614;2023-05-08T03:35:13;10.80;99.90
61841;DHT22;47773;53.174;6.614;2023-05-08T03:37:39;10.80;99.90
61841;DHT22;47773;53.174;6.614;2023-05-08T03:40:05;10.80;99.90
61841;DHT22;47773;53.174;6.614;2023-05-08T03:42:31;10.70;99.90
61841;DHT22;47773;53.174;6.614;2023-05-08T03:44:57;10.80;99.90
61841;DHT22;47773;53.174;6.614;2023-05-08T03:47:24;10.70;99.90
61841;DHT22;47773;53.174;6.614;2023-05-08T03:49:53;10.70;99.90
61841;DHT22;47773;53.174;6.614;2023-05-08T03:52:19;10.70;99.90
61841;DHT22;47773;53.174;6.614;2023-05-08T03:54:45;10.70;99.90
61841;DHT22;47773;53.174;6.614;2023-05-08T03:57:11;10.70;99.90
61841;DHT22;47773;53.174;6.614;2023-05-08T03:59:46;10.70;99.90
61841;DHT22;47773;53.174;6.614;2023-05-08T04:05:13;10.70;99.90
61841;DHT22;47773;53.174;6.614;2023-05-08T04:07:52;10.70;99.90
61841;DHT22;47773;53.174;6.614;2023-05-08T04:10:31;10.60;99.90
61841;DHT22;47773;53.174;6.614;2023-05-08T04:15:28;10.60;99.90
61841;DHT22;47773;53.174;6.614;2023-05-08T04:18:03;10.60;99.90
61841;DHT22;47773;53.174;6.614;2023-05-08T04:20:31;10.60;99.90
61841;DHT22;47773;53.174;6.614;2023-05-08T04:22:58;10.60;99.90
61841;DHT22;47773;53.174;6.614;2023-05-08T04:25:24;10.60;99.90
61841;DHT22;47773;53.174;6.614;2023-05-08T04:27:51;10.60;99.90
61841;DHT22;47773;53.174;6.614;2023-05-08T04:30:18;10.60;99.90
61841;DHT22;47773;53.174;6.614;2023-05-08T04:32:44;10.60;99.90
61841;DHT22;47773;53.174;6.614;2023-05-08T04:35:10;10.60;99.90
61841;DHT22;47773;53.174;6.614;2023-05-08T04:37:37;10.60;99.90
61841;DHT22;47773;53.174;6.614;2023-05-08T04:40:03;10.60;99.90
61841;DHT22;47773;53.174;6.614;2023-05-08T04:42:29;10.60;99.90
61841;DHT22;47773;53.174;6.614;2023-05-08T04:44:55;10.60;99.90
61841;DHT22;47773;53.174;6.614;2023-05-08T04:47:21;10.70;99.90
61841;DHT22;47773;53.174;6.614;2023-05-08T04:49:49;10.70;99.90
61841;DHT22;47773;53.174;6.614;2023-05-08T04:52:15;10.80;99.90
61841;DHT22;47773;53.174;6.614;2023-05-08T04:54:41;10.80;99.90
61841;DHT22;47773;53.174;6.614;2023-05-08T04:57:06;10.90;99.90
61841;DHT22;47773;53.174;6.614;2023-05-08T04:59:32;11.00;99.90
61841;DHT22;47773;53.174;6.614;2023-05-08T05:01:58;11.10;99.90
61841;DHT22;47773;53.174;6.614;2023-05-08T05:04:27;11.10;99.90
61841;DHT22;47773;53.174;6.614;2023-05-08T05:06:52;11.20;99.90
61841;DHT22;47773;53.174;6.614;2023-05-08T05:09:18;11.40;99.90
61841;DHT22;47773;53.174;6.614;2023-05-08T05:11:44;11.50;99.90
61841;DHT22;47773;53.174;6.614;2023-05-08T05:14:09;11.70;99.90
61841;DHT22;47773;53.174;6.614;2023-05-08T05:16:35;11.90;99.90
61841;DHT22;47773;53.174;6.614;2023-05-08T05:19:01;12.00;99.90
61841;DHT22;47773;53.174;6.614;2023-05-08T05:21:27;12.10;99.90
61841;DHT22;47773;53.174;6.614;2023-05-08T05:23:52;12.30;99.90
61841;DHT22;47773;53.174;6.614;2023-05-08T05:26:18;12.40;99.90
61841;DHT22;47773;53.174;6.614;2023-05-08T05:28:44;12.60;99.90
61841;DHT22;47773;53.174;6.614;2023-05-08T05:31:09;12.70;99.90
61841;DHT22;47773;53.174;6.614;2023-05-08T05:33:35;12.70;99.90
61841;DHT22;47773;53.174;6.614;2023-05-08T05:36:01;12.70;99.90
61841;DHT22;47773;53.174;6.614;2023-05-08T05:38:26;12.80;99.90
61841;DHT22;47773;53.174;6.614;2023-05-08T05:40:52;12.80;99.90
61841;DHT22;47773;53.174;6.614;2023-05-08T05:43:18;12.90;99.90
61841;DHT22;47773;53.174;6.614;2023-05-08T05:45:44;13.00;99.90
61841;DHT22;47773;53.174;6.614;2023-05-08T05:48:09;13.10;99.90
61841;DHT22;47773;53.174;6.614;2023-05-08T05:50:35;13.20;99.90
61841;DHT22;47773;53.174;6.614;2023-05-08T05:53:02;13.30;99.90
61841;DHT22;47773;53.174;6.614;2023-05-08T05:55:28;13.40;99.90
61841;DHT22;47773;53.174;6.614;2023-05-08T05:57:54;13.40;99.90
61841;DHT22;47773;53.174;6.614;2023-05-08T06:00:20;13.50;99.90
61841;DHT22;47773;53.174;6.614;2023-05-08T06:02:46;13.50;99.90
61841;DHT22;47773;53.174;6.614;2023-05-08T06:05:12;13.50;99.90
61841;DHT22;47773;53.174;6.614;2023-05-08T06:07:38;13.50;99.90
61841;DHT22;47773;53.174;6.614;2023-05-08T06:10:04;13.50;99.90
61841;DHT22;47773;53.174;6.614;2023-05-08T06:12:30;13.60;99.90
61841;DHT22;47773;53.174;6.614;2023-05-08T06:14:56;13.60;99.90
61841;DHT22;47773;53.174;6.614;2023-05-08T06:17:22;13.60;99.90
61841;DHT22;47773;53.174;6.614;2023-05-08T06:19:47;13.70;99.90
61841;DHT22;47773;53.174;6.614;2023-05-08T06:22:22;13.90;99.90
61841;DHT22;47773;53.174;6.614;2023-05-08T06:24:49;13.90;99.90
61841;DHT22;47773;53.174;6.614;2023-05-08T06:27:18;14.00;99.90
61841;DHT22;47773;53.174;6.614;2023-05-08T06:29:44;14.10;99.90
61841;DHT22;47773;53.174;6.614;2023-05-08T06:32:10;14.20;99.90
61841;DHT22;47773;53.174;6.614;2023-05-08T06:34:36;14.40;99.90
61841;DHT22;47773;53.174;6.614;2023-05-08T06:37:01;14.70;99.90
61841;DHT22;47773;53.174;6.614;2023-05-08T06:39:27;14.80;99.90
61841;DHT22;47773;53.174;6.614;2023-05-08T06:41:53;15.10;99.90
61841;DHT22;47773;53.174;6.614;2023-05-08T06:44:18;15.10;99.90
61841;DHT22;47773;53.174;6.614;2023-05-08T06:46:44;15.00;99.90
61841;DHT22;47773;53.174;6.614;2023-05-08T06:49:09;14.90;99.90
61841;DHT22;47773;53.174;6.614;2023-05-08T06:51:35;14.80;99.90
61841;DHT22;47773;53.174;6.614;2023-05-08T06:54:02;14.70;99.90
61841;DHT22;47773;53.174;6.614;2023-05-08T06:56:32;14.70;99.90
61841;DHT22;47773;53.174;6.614;2023-05-08T06:58:58;14.60;99.90
61841;DHT22;47773;53.174;6.614;2023-05-08T07:01:24;14.50;99.90
61841;DHT22;47773;53.174;6.614;2023-05-08T07:03:49;14.50;99.90
61841;DHT22;47773;53.174;6.614;2023-05-08T07:06:15;14.50;99.90
61841;DHT22;47773;53.174;6.614;2023-05-08T07:08:41;14.40;99.90
61841;DHT22;47773;53.174;6.614;2023-05-08T07:11:06;14.30;99.90
61841;DHT22;47773;53.174;6.614;2023-05-08T07:13:35;14.20;99.90
61841;DHT22;47773;53.174;6.614;2023-05-08T07:16:00;14.10;99.90
61841;DHT22;47773;53.174;6.614;2023-05-08T07:18:26;14.20;99.90
61841;DHT22;47773;53.174;6.614;2023-05-08T07:20:52;14.30;99.90
61841;DHT22;47773;53.174;6.614;2023-05-08T07:23:18;14.20;99.90
61841;DHT22;47773;53.174;6.614;2023-05-08T07:25:44;14.20;99.90
61841;DHT22;47773;53.174;6.614;2023-05-08T07:28:10;14.20;99.90
61841;DHT22;47773;53.174;6.614;2023-05-08T07:30:36;14.20;99.90
61841;DHT22;47773;53.174;6.614;2023-05-08T07:33:01;14.10;99.90
61841;DHT22;47773;53.174;6.614;2023-05-08T07:35:28;14.10;99.90
61841;DHT22;47773;53.174;6.614;2023-05-08T07:37:53;14.10;99.90
61841;DHT22;47773;53.174;6.614;2023-05-08T07:40:19;14.00;99.90
61841;DHT22;47773;53.174;6.614;2023-05-08T07:42:45;14.10;99.90
61841;DHT22;47773;53.174;6.614;2023-05-08T07:45:12;14.10;99.90
61841;DHT22;47773;53.174;6.614;2023-05-08T07:47:46;14.20;99.90
61841;DHT22;47773;53.174;6.614;2023-05-08T07:50:12;14.20;99.90
61841;DHT22;47773;53.174;6.614;2023-05-08T07:52:38;14.30;99.90
61841;DHT22;47773;53.174;6.614;2023-05-08T07:55:04;14.40;99.90
61841;DHT22;47773;53.174;6.614;2023-05-08T07:57:37;14.50;99.90
61841;DHT22;47773;53.174;6.614;2023-05-08T08:00:03;14.50;99.90
61841;DHT22;47773;53.174;6.614;2023-05-08T08:02:29;14.50;99.90
61841;DHT22;47773;53.174;6.614;2023-05-08T08:04:55;14.60;99.90
61841;DHT22;47773;53.174;6.614;2023-05-08T08:07:20;14.60;99.90
61841;DHT22;47773;53.174;6.614;2023-05-08T08:09:46;14.70;99.90
61841;DHT22;47773;53.174;6.614;2023-05-08T08:12:12;14.80;99.90
61841;DHT22;47773;53.174;6.614;2023-05-08T08:14:38;15.00;99.90
61841;DHT22;47773;53.174;6.614;2023-05-08T08:17:04;15.10;99.90
61841;DHT22;47773;53.174;6.614;2023-05-08T08:19:29;15.30;99.90
61841;DHT22;47773;53.174;6.614;2023-05-08T08:21:55;15.40;99.90
61841;DHT22;47773;53.174;6.614;2023-05-08T08:24:22;15.40;99.90
61841;DHT22;47773;53.174;6.614;2023-05-08T08:26:47;15.50;99.90
61841;DHT22;47773;53.174;6.614;2023-05-08T08:29:13;15.60;99.90
61841;DHT22;47773;53.174;6.614;2023-05-08T08:31:39;15.70;99.90
61841;DHT22;47773;53.174;6.614;2023-05-08T08:34:05;15.80;99.90
61841;DHT22;47773;53.174;6.614;2023-05-08T08:36:30;15.80;99.90
61841;DHT22;47773;53.174;6.614;2023-05-08T08:38:57;15.80;99.90
61841;DHT22;47773;53.174;6.614;2023-05-08T08:41:23;15.90;99.90
61841;DHT22;47773;53.174;6.614;2023-05-08T08:43:49;16.00;99.90
61841;DHT22;47773;53.174;6.614;2023-05-08T08:46:19;16.00;99.90
61841;DHT22;47773;53.174;6.614;2023-05-08T08:48:48;16.10;99.90
61841;DHT22;47773;53.174;6.614;2023-05-08T08:51:35;16.10;99.90
61841;DHT22;47773;53.174;6.614;2023-05-08T08:54:09;16.10;99.90
61841;DHT22;47773;53.174;6.614;2023-05-08T08:56:37;16.10;99.90
61841;DHT22;47773;53.174;6.614;2023-05-08T08:59:04;16.20;99.90
61841;DHT22;47773;53.174;6.614;2023-05-08T09:01:34;16.20;99.90
61841;DHT22;47773;53.174;6.614;2023-05-08T09:04:03;16.30;99.90
61841;DHT22;47773;53.174;6.614;2023-05-08T09:06:30;16.30;99.90
61841;DHT22;47773;53.174;6.614;2023-05-08T09:09:01;16.30;99.90
61841;DHT22;47773;53.174;6.614;2023-05-08T09:11:27;16.30;99.90
61841;DHT22;47773;53.174;6.614;2023-05-08T09:13:56;16.30;99.90
61841;DHT22;47773;53.174;6.614;2023-05-08T09:16:23;16.30;99.90
61841;DHT22;47773;53.174;6.614;2023-05-08T09:18:49;16.50;99.90
61841;DHT22;47773;53.174;6.614;2023-05-08T09:21:14;16.60;99.90
61841;DHT22;47773;53.174;6.614;2023-05-08T09:23:59;16.90;99.90
61841;DHT22;47773;53.174;6.614;2023-05-08T09:26:31;17.20;99.90
61841;DHT22;47773;53.174;6.614;2023-05-08T09:29:10;17.70;99.90
61841;DHT22;47773;53.174;6.614;2023-05-08T09:31:38;18.20;99.90
61841;DHT22;47773;53.174;6.614;2023-05-08T09:34:24;18.60;99.90
61841;DHT22;47773;53.174;6.614;2023-05-08T09:36:51;19.00;99.90
61841;DHT22;47773;53.174;6.614;2023-05-08T09:39:22;19.20;99.90
61841;DHT22;47773;53.174;6.614;2023-05-08T09:42:04;19.40;99.90
61841;DHT22;47773;53.174;6.614;2023-05-08T09:44:49;19.70;99.90
61841;DHT22;47773;53.174;6.614;2023-05-08T09:47:22;19.80;99.90
61841;DHT22;47773;53.174;6.614;2023-05-08T09:50:09;19.90;99.90
61841;DHT22;47773;53.174;6.614;2023-05-08T09:52:37;20.00;99.90
61841;DHT22;47773;53.174;6.614;2023-05-08T09:55:04;20.10;99.90
61841;DHT22;47773;53.174;6.614;2023-05-08T09:57:31;20.30;99.90
61841;DHT22;47773;53.174;6.614;2023-05-08T10:00:07;20.50;99.90
61841;DHT22;47773;53.174;6.614;2023-05-08T10:02:35;20.50;99.90
61841;DHT22;47773;53.174;6.614;2023-05-08T10:05:02;20.50;99.90
61841;DHT22;47773;53.174;6.614;2023-05-08T10:07:33;20.70;99.90
61841;DHT22;47773;53.174;6.614;2023-05-08T10:10:03;20.90;99.90
61841;DHT22;47773;53.174;6.614;2023-05-08T10:12:31;21.10;99.90
61841;DHT22;47773;53.174;6.614;2023-05-08T10:14:57;21.30;99.90
61841;DHT22;47773;53.174;6.614;2023-05-08T10:20:05;21.00;99.90
61841;DHT22;47773;53.174;6.614;2023-05-08T10:22:31;21.10;99.90
61841;DHT22;47773;53.174;6.614;2023-05-08T10:25:01;21.40;99.90
61841;DHT22;47773;53.174;6.614;2023-05-08T10:27:40;21.60;99.90
61841;DHT22;47773;53.174;6.614;2023-05-08T10:30:09;21.70;99.90
61841;DHT22;47773;53.174;6.614;2023-05-08T10:32:38;21.70;99.90
61841;DHT22;47773;53.174;6.614;2023-05-08T10:35:09;21.70;99.90
61841;DHT22;47773;53.174;6.614;2023-05-08T10:37:36;21.80;99.90
61841;DHT22;47773;53.174;6.614;2023-05-08T10:40:04;21.80;99.90
61841;DHT22;47773;53.174;6.614;2023-05-08T10:42:31;21.90;99.90
61841;DHT22;47773;53.174;6.614;2023-05-08T10:44:58;21.90;99.90
61841;DHT22;47773;53.174;6.614;2023-05-08T10:48:02;22.00;99.90
61841;DHT22;47773;53.174;6.614;2023-05-08T10:53:19;22.00;99.80
61841;DHT22;47773;53.174;6.614;2023-05-08T10:55:49;22.20;99.90
61841;DHT22;47773;53.174;6.614;2023-05-08T10:58:30;22.30;99.90
61841;DHT22;47773;53.174;6.614;2023-05-08T11:05:51;22.40;99.90
61841;DHT22;47773;53.174;6.614;2023-05-08T11:08:19;22.40;99.80
61841;DHT22;47773;53.174;6.614;2023-05-08T11:13:33;22.30;98.50
61841;DHT22;47773;53.174;6.614;2023-05-08T11:15:59;22.30;98.50
61841;DHT22;47773;53.174;6.614;2023-05-08T11:18:26;22.30;99.70
61841;DHT22;47773;53.174;6.614;2023-05-08T11:21:13;22.40;99.90
61841;DHT22;47773;53.174;6.614;2023-05-08T11:23:39;22.60;98.80
61841;DHT22;47773;53.174;6.614;2023-05-08T11:26:12;22.70;99.20
61841;DHT22;47773;53.174;6.614;2023-05-08T11:28:56;22.90;99.10
61841;DHT22;47773;53.174;6.614;2023-05-08T11:31:22;23.00;95.10
61841;DHT22;47773;53.174;6.614;2023-05-08T11:33:48;23.00;97.40
61841;DHT22;47773;53.174;6.614;2023-05-08T11:36:15;23.20;97.00
61841;DHT22;47773;53.174;6.614;2023-05-08T11:38:42;23.40;95.80
61841;DHT22;47773;53.174;6.614;2023-05-08T11:41:22;23.20;95.10
61841;DHT22;47773;53.174;6.614;2023-05-08T11:46:51;23.20;94.50
61841;DHT22;47773;53.174;6.614;2023-05-08T11:49:22;23.10;95.20
61841;DHT22;47773;53.174;6.614;2023-05-08T11:51:50;23.10;96.00
61841;DHT22;47773;53.174;6.614;2023-05-08T11:54:20;23.20;95.80
61841;DHT22;47773;53.174;6.614;2023-05-08T11:56:48;23.30;95.60
61841;DHT22;47773;53.174;6.614;2023-05-08T11:59:14;23.40;95.80
61841;DHT22;47773;53.174;6.614;2023-05-08T12:01:41;23.40;94.70
61841;DHT22;47773;53.174;6.614;2023-05-08T12:04:08;23.30;93.50
61841;DHT22;47773;53.174;6.614;2023-05-08T12:06:35;23.20;93.80
61841;DHT22;47773;53.174;6.614;2023-05-08T12:09:15;23.20;94.40
61841;DHT22;47773;53.174;6.614;2023-05-08T12:11:42;23.10;94.30
61841;DHT22;47773;53.174;6.614;2023-05-08T12:14:12;23.20;94.50
61841;DHT22;47773;53.174;6.614;2023-05-08T12:16:41;23.20;94.10
61841;DHT22;47773;53.174;6.614;2023-05-08T12:19:11;23.20;94.40
61841;DHT22;47773;53.174;6.614;2023-05-08T12:21:38;23.30;94.40
61841;DHT22;47773;53.174;6.614;2023-05-08T12:24:10;23.10;93.60
61841;DHT22;47773;53.174;6.614;2023-05-08T12:26:37;23.00;93.70
61841;DHT22;47773;53.174;6.614;2023-05-08T12:29:06;23.00;94.30
61841;DHT22;47773;53.174;6.614;2023-05-08T12:31:36;23.00;94.20
61841;DHT22;47773;53.174;6.614;2023-05-08T12:34:03;23.10;94.30
61841;DHT22;47773;53.174;6.614;2023-05-08T12:36:35;23.20;94.90
61841;DHT22;47773;53.174;6.614;2023-05-08T12:39:27;23.20;92.90
61841;DHT22;47773;53.174;6.614;2023-05-08T12:41:53;23.20;93.10
61841;DHT22;47773;53.174;6.614;2023-05-08T12:44:23;23.10;93.40
61841;DHT22;47773;53.174;6.614;2023-05-08T12:46:50;23.00;92.60
61841;DHT22;47773;53.174;6.614;2023-05-08T12:49:27;22.90;93.60
61841;DHT22;47773;53.174;6.614;2023-05-08T12:52:06;23.00;93.50
61841;DHT22;47773;53.174;6.614;2023-05-08T12:54:37;22.90;94.60
61841;DHT22;47773;53.174;6.614;2023-05-08T12:57:17;22.80;95.90
61841;DHT22;47773;53.174;6.614;2023-05-08T12:59:44;22.50;95.00
61841;DHT22;47773;53.174;6.614;2023-05-08T13:02:20;22.40;97.10
61841;DHT22;47773;53.174;6.614;2023-05-08T13:04:53;22.30;97.70
61841;DHT22;47773;53.174;6.614;2023-05-08T13:07:20;22.10;97.70
61841;DHT22;47773;53.174;6.614;2023-05-08T13:09:57;22.10;99.20
61841;DHT22;47773;53.174;6.614;2023-05-08T13:12:26;22.00;99.40
61841;DHT22;47773;53.174;6.614;2023-05-08T13:14:51;22.00;99.90
61841;DHT22;47773;53.174;6.614;2023-05-08T13:17:17;22.10;99.50
61841;DHT22;47773;53.174;6.614;2023-05-08T13:19:43;22.10;99.30
61841;DHT22;47773;53.174;6.614;2023-05-08T13:22:09;22.00;99.30
61841;DHT22;47773;53.174;6.614;2023-05-08T13:24:34;22.00;99.60
61841;DHT22;47773;53.174;6.614;2023-05-08T13:27:00;22.30;98.80
61841;DHT22;47773;53.174;6.614;2023-05-08T13:29:26;22.40;98.80
61841;DHT22;47773;53.174;6.614;2023-05-08T13:31:52;22.40;98.30
61841;DHT22;47773;53.174;6.614;2023-05-08T13:34:18;22.40;97.80
61841;DHT22;47773;53.174;6.614;2023-05-08T13:36:43;22.50;97.20
61841;DHT22;47773;53.174;6.614;2023-05-08T13:39:09;22.70;96.60
61841;DHT22;47773;53.174;6.614;2023-05-08T13:41:35;22.80;95.90
61841;DHT22;47773;53.174;6.614;2023-05-08T13:44:01;22.90;95.70
61841;DHT22;47773;53.174;6.614;2023-05-08T13:46:26;23.00;96.10
61841;DHT22;47773;53.174;6.614;2023-05-08T13:48:52;23.10;95.00
61841;DHT22;47773;53.174;6.614;2023-05-08T13:51:17;23.20;94.40
61841;DHT22;47773;53.174;6.614;2023-05-08T13:53:43;23.20;93.00
61841;DHT22;47773;53.174;6.614;2023-05-08T13:56:09;23.40;92.60
61841;DHT22;47773;53.174;6.614;2023-05-08T13:58:34;23.70;92.70
61841;DHT22;47773;53.174;6.614;2023-05-08T14:01:00;23.80;91.50
61841;DHT22;47773;53.174;6.614;2023-05-08T14:03:26;23.80;92.10
61841;DHT22;47773;53.174;6.614;2023-05-08T14:05:51;23.80;91.50
61841;DHT22;47773;53.174;6.614;2023-05-08T14:08:17;23.70;90.70
61841;DHT22;47773;53.174;6.614;2023-05-08T14:10:43;23.80;90.90
61841;DHT22;47773;53.174;6.614;2023-05-08T14:13:08;23.70;90.60
61841;DHT22;47773;53.174;6.614;2023-05-08T14:15:34;23.60;90.70
61841;DHT22;47773;53.174;6.614;2023-05-08T14:18:01;23.60;90.90
61841;DHT22;47773;53.174;6.614;2023-05-08T14:20:27;23.40;90.30
61841;DHT22;47773;53.174;6.614;2023-05-08T14:22:52;23.30;91.00
61841;DHT22;47773;53.174;6.614;2023-05-08T14:25:18;23.20;91.40
61841;DHT22;47773;53.174;6.614;2023-05-08T14:27:44;23.30;90.50
61841;DHT22;47773;53.174;6.614;2023-05-08T14:30:09;23.20;90.30
61841;DHT22;47773;53.174;6.614;2023-05-08T14:32:35;23.30;91.10
61841;DHT22;47773;53.174;6.614;2023-05-08T14:35:01;23.20;90.50
61841;DHT22;47773;53.174;6.614;2023-05-08T14:37:26;23.10;91.10
61841;DHT22;47773;53.174;6.614;2023-05-08T14:39:52;22.90;91.90
61841;DHT22;47773;53.174;6.614;2023-05-08T14:42:18;22.90;92.40
61841;DHT22;47773;53.174;6.614;2023-05-08T14:44:44;22.70;92.40
61841;DHT22;47773;53.174;6.614;2023-05-08T14:47:10;22.70;93.00
61841;DHT22;47773;53.174;6.614;2023-05-08T14:49:36;22.60;93.40
61841;DHT22;47773;53.174;6.614;2023-05-08T14:52:01;22.50;93.90
61841;DHT22;47773;53.174;6.614;2023-05-08T14:54:27;22.50;94.20
61841;DHT22;47773;53.174;6.614;2023-05-08T14:56:52;22.40;94.90
61841;DHT22;47773;53.174;6.614;2023-05-08T14:59:18;22.40;95.40
61841;DHT22;47773;53.174;6.614;2023-05-08T15:01:44;22.40;95.10
61841;DHT22;47773;53.174;6.614;2023-05-08T15:04:10;22.30;95.50
61841;DHT22;47773;53.174;6.614;2023-05-08T15:06:36;22.30;95.90
61841;DHT22;47773;53.174;6.614;2023-05-08T15:09:07;22.30;96.20
61841;DHT22;47773;53.174;6.614;2023-05-08T15:11:34;22.20;96.80
61841;DHT22;47773;53.174;6.614;2023-05-08T15:14:01;22.30;97.20
61841;DHT22;47773;53.174;6.614;2023-05-08T15:16:27;22.20;97.60
61841;DHT22;47773;53.174;6.614;2023-05-08T15:18:53;22.10;98.50
61841;DHT22;47773;53.174;6.614;2023-05-08T15:21:18;22.10;98.90
61841;DHT22;47773;53.174;6.614;2023-05-08T15:23:53;22.10;99.50
61841;DHT22;47773;53.174;6.614;2023-05-08T15:26:20;22.00;99.60
61841;DHT22;47773;53.174;6.614;2023-05-08T15:28:46;22.00;99.90
61841;DHT22;47773;53.174;6.614;2023-05-08T15:31:12;22.00;99.90
61841;DHT22;47773;53.174;6.614;2023-05-08T15:33:38;22.00;99.90
61841;DHT22;47773;53.174;6.614;2023-05-08T15:36:12;22.00;99.90
61841;DHT22;47773;53.174;6.614;2023-05-08T15:38:38;22.00;99.90
61841;DHT22;47773;53.174;6.614;2023-05-08T15:41:04;22.10;99.90
61841;DHT22;47773;53.174;6.614;2023-05-08T15:43:30;22.10;99.90
61841;DHT22;47773;53.174;6.614;2023-05-08T15:45:56;22.10;99.90
61841;DHT22;47773;53.174;6.614;2023-05-08T15:48:21;22.00;99.90
61841;DHT22;47773;53.174;6.614;2023-05-08T15:50:47;22.00;99.90
61841;DHT22;47773;53.174;6.614;2023-05-08T15:53:13;22.00;99.90
61841;DHT22;47773;53.174;6.614;2023-05-08T15:55:38;21.90;99.90
61841;DHT22;47773;53.174;6.614;2023-05-08T15:58:04;21.70;99.90
61841;DHT22;47773;53.174;6.614;2023-05-08T16:00:29;21.50;99.90
61841;DHT22;47773;53.174;6.614;2023-05-08T16:02:56;21.40;99.90
61841;DHT22;47773;53.174;6.614;2023-05-08T16:05:21;21.30;99.90
61841;DHT22;47773;53.174;6.614;2023-05-08T16:07:47;21.20;99.90
61841;DHT22;47773;53.174;6.614;2023-05-08T16:10:16;21.10;99.90
61841;DHT22;47773;53.174;6.614;2023-05-08T16:12:42;20.80;99.90
61841;DHT22;47773;53.174;6.614;2023-05-08T16:15:07;20.60;99.90
61841;DHT22;47773;53.174;6.614;2023-05-08T16:17:33;20.40;99.90
61841;DHT22;47773;53.174;6.614;2023-05-08T16:19:59;20.30;99.90